Portada
METAR-TAF:

METAR-TAF

Aeroports :

Pattaya-Rayong, Tailàndia

latitud: 12-38N, longitud: 101-21E, altitud: 3 m

Observació

L'informe es va fer fa 35 minuts, a les 16:00 UTC
Vent 4 kt del Est/Sud-Est
Temperatura 27°C
Humitat 84%
Pressió 1012 hPa
Visibilitat: 6000 m
Escasses núvols a una alçada de 2000 ft

METAR: VTBU 221600Z 12004KT 6000 FEW020 27/24 Q1012 NOSIG

Hora: 23:35 (16:35 UTC)

Pronòstic

L'informe es va fer fa 5 hores i 35 minuts, a les 11:00 UTC
Pronòstic vàlid del 22 a les 12 UTC al 23 a les 12 UTC
Vent 6 kt del Sud/Sud-Est
Visibilitat: 5000 m
Escasses núvols a una alçada de 2000 ft
Núvols disperses a una alçada de 10000 ft
boirina
Temporalment
l' 22 a les 12 UTC al 22 a les 18 UTC
Escasses núvols a una alçada de 2000 ft, Cumulonimbus.
Evolucionant progressivament
l' 22 a les 18 UTC al 22 a les 20 UTC
Vent 6 kt del Nord/Nord-Oest
Visibilitat: 4000 m
boirina

TAF: VTBU 221100Z 2212/2312 16006KT 5000 BR FEW020 SCT100 TEMPO 2212/2218 FEW020CB BECMG 2218/2220 33006KT 4000 BR

Observacions i pronòstics meteorològics de més de 4000 aeroports (METAR i TAF).

Les estacions disponibles són els punts grocs i vermells al mapa.

Posi el ratolí al punt desitjat per veure el nom de l'estació.

Feu clic per veure les observacions i els pronòstics meteorològics.

Per canviar el mapa: feu clic els botons verds amb una creu de color negre per apropar; al botó verd amb un guió per allunyar la imatge; o en les fletxes verdes per a mapes adjacents.


METAR-TAF: